createdAt,value
2023-01-04T00:01:33.583Z,98461.02
2023-01-04T00:04:01.568Z,98466.08
2023-01-04T00:06:29.393Z,98467.95
2023-01-04T00:08:57.241Z,98463.93
2023-01-04T00:11:24.902Z,98468.18
2023-01-04T00:13:56.346Z,98472.43
2023-01-04T00:16:26.994Z,98469.75
2023-01-04T00:18:55.601Z,98467.88
2023-01-04T00:21:27.397Z,98467.33
2023-01-04T00:23:58.528Z,98469.20
2023-01-04T00:26:33.066Z,98471.33
2023-01-04T00:29:05.297Z,98473.72
2023-01-04T00:31:34.337Z,98468.15
2023-01-04T00:34:04.732Z,98468.92
2023-01-04T00:36:33.475Z,98466.80
2023-01-04T00:39:09.343Z,98467.58
2023-01-04T00:42:02.309Z,98469.69
2023-01-04T00:44:16.290Z,98466.21
2023-01-04T00:46:44.657Z,98473.94
2023-01-04T00:49:12.641Z,98473.42
2023-01-04T00:51:42.250Z,98476.62
2023-01-04T00:54:15.780Z,98474.51
2023-01-04T00:56:44.170Z,98483.06
2023-01-04T00:59:17.804Z,98483.59
2023-01-04T01:01:46.366Z,98490.53
2023-01-04T01:04:17.794Z,98486.81
2023-01-04T01:06:46.081Z,98485.24
2023-01-04T01:09:14.747Z,98486.06
2023-01-04T01:11:42.959Z,98479.13
2023-01-04T01:14:18.249Z,98481.25
2023-01-04T01:17:02.454Z,98487.13
2023-01-04T01:19:16.662Z,98476.97
2023-01-04T01:21:44.726Z,98482.30
2023-01-04T01:24:16.678Z,98480.44
2023-01-04T01:26:44.494Z,98476.20
2023-01-04T01:29:12.258Z,98477.00
2023-01-04T01:31:41.165Z,98479.39
2023-01-04T01:34:12.122Z,98481.02
2023-01-04T01:36:39.862Z,98481.27
2023-01-04T01:39:07.922Z,98477.02
2023-01-04T01:41:36.024Z,98472.98
2023-01-04T01:44:44.699Z,98472.97
2023-01-04T01:47:20.107Z,98469.47
2023-01-04T01:49:51.696Z,98472.36
2023-01-04T01:52:24.639Z,98471.02
2023-01-04T01:54:59.735Z,98467.50
2023-01-04T01:57:31.941Z,98463.50
2023-01-04T02:00:05.237Z,98459.48
2023-01-04T02:02:35.540Z,98466.38
2023-01-04T02:05:03.767Z,98457.05
2023-01-04T02:07:31.923Z,98455.20
2023-01-04T02:10:00.201Z,98463.48
2023-01-04T02:12:28.164Z,98466.99
2023-01-04T02:14:56.229Z,98460.62
2023-01-04T02:17:47.056Z,98461.17
2023-01-04T02:20:38.185Z,98463.30
2023-01-04T02:23:28.880Z,98463.84
2023-01-04T02:26:05.172Z,98462.53
2023-01-04T02:28:43.500Z,98465.50
2023-01-04T02:31:40.368Z,98462.83
2023-01-04T02:34:45.804Z,98470.31
2023-01-04T02:37:33.303Z,98470.33
2023-01-04T02:40:22.832Z,98467.13
2023-01-04T02:43:20.190Z,98464.48
2023-01-04T02:45:56.116Z,98469.80
2023-01-04T02:48:42.468Z,98468.20
2023-01-04T02:51:35.389Z,98471.15
2023-01-04T02:54:08.010Z,98468.48
2023-01-04T02:57:32.381Z,98468.19
2023-01-04T03:00:44.970Z,98466.86
2023-01-04T03:03:39.519Z,98469.52
2023-01-04T03:06:21.587Z,98466.88
2023-01-04T03:09:03.533Z,98466.63
2023-01-04T03:11:56.642Z,98470.63
2023-01-04T03:14:31.715Z,98465.84
2023-01-04T03:17:01.603Z,98465.56
2023-01-04T03:19:49.849Z,98469.05
2023-01-04T03:22:41.195Z,98467.72
2023-01-04T03:25:27.704Z,98469.33
2023-01-04T03:28:15.582Z,98468.28
2023-01-04T03:31:19.116Z,98464.02
2023-01-04T03:34:05.381Z,98463.22
2023-01-04T03:36:44.900Z,98466.42
2023-01-04T03:39:48.532Z,98471.22
2023-01-04T03:42:56.465Z,98469.09
2023-01-04T03:45:47.775Z,98471.45
2023-01-04T03:48:31.005Z,98463.20
2023-01-04T03:51:15.416Z,98465.60
2023-01-04T03:53:57.341Z,98471.98
2023-01-04T03:56:28.164Z,98474.13
2023-01-04T03:58:56.041Z,98474.38
2023-01-04T04:01:26.201Z,98475.47
2023-01-04T04:04:13.358Z,98475.20
2023-01-04T04:06:59.851Z,98480.79
2023-01-04T04:09:27.684Z,98474.40
2023-01-04T04:11:55.673Z,98474.13
2023-01-04T04:14:23.728Z,98470.91
2023-01-04T04:16:51.724Z,98477.56
2023-01-04T04:19:19.800Z,98472.74
2023-01-04T04:21:47.554Z,98473.52
2023-01-04T04:24:22.639Z,98478.85
2023-01-04T04:26:51.762Z,98476.19
2023-01-04T04:29:19.689Z,98475.39
2023-01-04T04:31:47.654Z,98480.72
2023-01-04T04:34:15.487Z,98482.61
2023-01-04T04:36:43.326Z,98479.13
2023-01-04T04:39:11.994Z,98478.09
2023-01-04T04:41:43.255Z,98473.56
2023-01-04T04:44:15.977Z,98472.48
2023-01-04T04:46:44.802Z,98472.75
2023-01-04T04:49:16.053Z,98462.91
2023-01-04T04:51:45.170Z,98465.05
2023-01-04T04:54:17.017Z,98472.51
2023-01-04T04:56:44.831Z,98473.04
2023-01-04T04:59:12.618Z,98472.25
2023-01-04T05:01:40.715Z,98471.41
2023-01-04T05:04:08.815Z,98471.95
2023-01-04T05:06:36.458Z,98473.02
2023-01-04T05:09:04.249Z,98470.63
2023-01-04T05:11:50.330Z,98474.38
2023-01-04T05:14:18.456Z,98474.38
2023-01-04T05:16:46.374Z,98478.09
2023-01-04T05:19:14.083Z,98477.30
2023-01-04T05:21:41.895Z,98478.91
2023-01-04T05:24:12.149Z,98475.16
2023-01-04T05:26:40.154Z,98482.08
2023-01-04T05:29:09.636Z,98481.28
2023-01-04T05:31:38.102Z,98486.38
2023-01-04T05:34:05.866Z,98491.97
2023-01-04T05:36:33.577Z,98491.98
2023-01-04T05:39:01.460Z,98491.71
2023-01-04T05:41:47.391Z,98495.97
2023-01-04T05:44:15.377Z,98500.27
2023-01-04T05:46:43.123Z,98499.73
2023-01-04T05:49:11.133Z,98498.13
2023-01-04T05:51:38.939Z,98501.86
2023-01-04T05:54:06.483Z,98507.98
2023-01-04T05:56:34.229Z,98511.45
2023-01-04T05:59:02.093Z,98502.66
2023-01-04T06:01:29.957Z,98510.95
2023-01-04T06:03:57.900Z,98507.45
2023-01-04T06:06:25.712Z,98510.12
2023-01-04T06:08:53.454Z,98510.12
2023-01-04T06:11:27.192Z,98519.47
2023-01-04T06:13:50.952Z,98513.61
2023-01-04T06:16:19.196Z,98518.66
2023-01-04T06:18:47.006Z,98523.98
2023-01-04T06:21:14.951Z,98525.08
2023-01-04T06:23:42.486Z,98525.88
2023-01-04T06:26:10.215Z,98526.14
2023-01-04T06:28:41.001Z,98526.67
2023-01-04T06:31:09.544Z,98534.14
2023-01-04T06:33:37.647Z,98534.14
2023-01-04T06:36:06.340Z,98534.65
2023-01-04T06:38:34.393Z,98538.63
2023-01-04T06:41:02.143Z,98542.64
2023-01-04T06:43:30.061Z,98550.08
2023-01-04T06:45:58.128Z,98547.94
2023-01-04T06:48:25.961Z,98547.36
2023-01-04T06:50:53.604Z,98539.34
2023-01-04T06:53:21.570Z,98540.39
2023-01-04T06:55:49.367Z,98547.56
2023-01-04T06:58:17.354Z,98552.90
2023-01-04T07:00:46.637Z,98554.77
2023-01-04T07:03:16.196Z,98559.00
2023-01-04T07:05:44.597Z,98559.30
2023-01-04T07:08:14.814Z,98560.63
2023-01-04T07:10:42.665Z,98561.19
2023-01-04T07:13:10.900Z,98566.52
2023-01-04T07:15:41.022Z,98556.38
2023-01-04T07:18:10.610Z,98561.20
2023-01-04T07:20:39.082Z,98563.62
2023-01-04T07:23:07.977Z,98563.38
2023-01-04T07:25:35.952Z,98572.22
2023-01-04T07:28:04.176Z,98582.09
2023-01-04T07:30:32.161Z,98585.59
2023-01-04T07:33:00.242Z,98592.27
2023-01-04T07:35:28.602Z,98592.55
2023-01-04T07:37:58.915Z,98596.30
2023-01-04T07:40:27.399Z,98594.98
2023-01-04T07:42:57.550Z,98597.92
2023-01-04T07:45:25.769Z,98596.61
2023-01-04T07:47:53.354Z,98599.83
2023-01-04T07:50:21.195Z,98587.83
2023-01-04T07:52:48.823Z,98592.09
2023-01-04T07:55:16.818Z,98587.29
2023-01-04T07:57:44.724Z,98588.63
2023-01-04T08:00:13.457Z,98592.35
2023-01-04T08:02:42.687Z,98591.30
2023-01-04T08:05:10.925Z,98595.88
2023-01-04T08:07:38.885Z,98593.49
2023-01-04T08:10:08.282Z,98604.17
2023-01-04T08:12:36.159Z,98604.45
2023-01-04T08:15:04.722Z,98610.33
2023-01-04T08:17:33.607Z,98613.83
2023-01-04T08:20:03.667Z,98611.42
2023-01-04T08:22:35.061Z,98619.16
2023-01-04T08:25:02.957Z,98622.12
2023-01-04T08:27:31.025Z,98618.38
2023-01-04T08:29:59.201Z,98613.59
2023-01-04T08:32:27.555Z,98620.79
2023-01-04T08:34:57.343Z,98615.73
2023-01-04T08:37:25.182Z,98614.67
2023-01-04T08:39:52.956Z,98621.91
2023-01-04T08:42:28.638Z,98620.03
2023-01-04T08:44:52.969Z,98622.16
2023-01-04T08:47:19.998Z,98624.59
2023-01-04T08:49:48.105Z,98628.87
2023-01-04T08:52:15.938Z,98633.71
2023-01-04T08:54:43.957Z,98628.64
2023-01-04T08:57:11.669Z,98628.94
2023-01-04T08:59:41.512Z,98628.12
2023-01-04T09:02:27.496Z,98620.14
2023-01-04T09:04:58.233Z,98619.34
2023-01-04T09:07:31.592Z,98613.46
2023-01-04T09:10:03.082Z,98610.56
2023-01-04T09:12:31.326Z,98606.84
2023-01-04T09:15:09.578Z,98598.81
2023-01-04T09:17:58.006Z,98590.81
2023-01-04T09:20:11.857Z,98589.47
2023-01-04T09:22:50.117Z,98583.31
2023-01-04T09:25:26.330Z,98587.86
2023-01-04T09:27:55.078Z,98587.61
2023-01-04T09:30:23.238Z,98579.58
2023-01-04T09:32:51.574Z,98582.53
2023-01-04T09:35:19.763Z,98575.59
2023-01-04T09:37:54.951Z,98567.56
2023-01-04T09:40:26.563Z,98567.82
2023-01-04T09:43:20.623Z,98563.54
2023-01-04T09:45:30.398Z,98559.00
2023-01-04T09:48:11.348Z,98554.45
2023-01-04T09:50:50.289Z,98555.52
2023-01-04T09:53:30.091Z,98557.94
2023-01-04T09:56:12.466Z,98553.14
2023-01-04T09:58:48.904Z,98557.41
2023-01-04T10:01:52.052Z,98558.72
2023-01-04T10:04:47.805Z,98555.52
2023-01-04T10:07:33.884Z,98549.38
2023-01-04T10:10:06.359Z,98546.17
2023-01-04T10:13:03.923Z,98546.98
2023-01-04T10:19:23.922Z,98538.70
2023-01-04T10:22:00.075Z,98541.36
2023-01-04T12:46:07.046Z,98471.24
2023-01-04T12:52:42.584Z,98480.52
2023-01-04T13:17:28.866Z,98456.97
2023-01-04T13:30:29.490Z,98442.14
2023-01-04T13:36:42.246Z,98434.72
2023-01-04T14:12:11.063Z,98438.76
2023-01-04T14:15:08.434Z,98442.58
2023-01-04T14:17:56.657Z,98437.84
2023-01-04T14:20:38.409Z,98441.09
2023-01-04T14:23:17.622Z,98439.52
2023-01-04T14:25:52.826Z,98436.61
2023-01-04T14:28:28.390Z,98440.94
2023-01-04T14:31:06.333Z,98440.70
2023-01-04T14:33:39.711Z,98434.59
2023-01-04T14:36:26.169Z,98439.72
2023-01-04T14:39:09.565Z,98439.47
2023-01-04T14:41:45.488Z,98437.60
2023-01-04T14:44:17.144Z,98440.58
2023-01-04T14:46:48.524Z,98437.91
2023-01-04T14:49:16.740Z,98435.54
2023-01-04T14:51:54.718Z,98432.62
2023-01-04T14:54:25.589Z,98435.84
2023-01-04T14:56:56.335Z,98436.94
2023-01-04T14:59:24.745Z,98427.33
2023-01-04T15:01:57.164Z,98433.48
2023-01-04T15:04:26.540Z,98438.59
2023-01-04T15:06:58.621Z,98433.83
2023-01-04T15:09:28.354Z,98430.36
2023-01-04T15:11:56.588Z,98433.84
2023-01-04T15:14:24.734Z,98432.00
2023-01-04T15:16:52.695Z,98434.39
2023-01-04T15:19:20.455Z,98437.36
2023-01-04T15:21:52.411Z,98435.22
2023-01-04T15:24:20.157Z,98432.30
2023-01-04T15:26:48.653Z,98435.77
2023-01-04T15:29:16.596Z,98437.37
2023-01-04T15:31:44.777Z,98439.79
2023-01-04T15:34:14.179Z,98439.79
2023-01-04T15:36:44.255Z,98437.66
2023-01-04T15:39:14.218Z,98435.52
2023-01-04T15:42:00.623Z,98434.19
2023-01-04T15:44:28.416Z,98434.73
2023-01-04T15:46:58.145Z,98434.73
2023-01-04T15:49:26.106Z,98444.61
2023-01-04T15:51:54.017Z,98433.14
2023-01-04T15:54:27.483Z,98436.86
2023-01-04T15:56:55.930Z,98429.64
2023-01-04T15:59:23.933Z,98424.05
2023-01-04T16:01:51.971Z,98426.21
2023-01-04T16:04:19.852Z,98424.34
2023-01-04T16:06:48.003Z,98425.71
2023-01-04T16:09:16.158Z,98428.39
2023-01-04T16:11:49.156Z,98430.31
2023-01-04T16:14:17.216Z,98422.58
2023-01-04T16:16:45.228Z,98429.27
2023-01-04T16:19:13.007Z,98420.20
2023-01-04T16:21:41.989Z,98418.36
2023-01-04T16:24:29.561Z,98416.77
2023-01-04T16:26:42.070Z,98420.81
2023-01-04T16:29:11.804Z,98421.89
2023-01-04T16:31:40.000Z,98414.44
2023-01-04T16:34:11.275Z,98415.27
2023-01-04T16:36:39.337Z,98411.25
2023-01-04T16:39:08.165Z,98408.03
2023-01-04T16:41:40.209Z,98407.80
2023-01-04T16:44:09.735Z,98407.28
2023-01-04T16:46:39.412Z,98404.08
2023-01-04T16:49:11.252Z,98400.34
2023-01-04T16:51:45.045Z,98401.94
2023-01-04T16:54:16.583Z,98394.74
2023-01-04T16:56:50.972Z,98401.97
2023-01-04T16:59:19.648Z,98400.90
2023-01-04T17:01:57.713Z,98402.77
2023-01-04T17:04:21.286Z,98394.49
2023-01-04T17:06:51.670Z,98395.28
2023-01-04T17:09:21.763Z,98395.28
2023-01-04T17:14:32.900Z,98382.73
2023-01-04T17:17:02.372Z,98386.72
2023-01-04T17:19:30.892Z,98393.63
2023-01-04T17:21:59.406Z,98395.76
2023-01-04T17:24:27.518Z,98390.97
2023-01-04T17:26:55.591Z,98397.33
2023-01-04T17:29:23.664Z,98394.38
2023-01-04T17:31:53.045Z,98391.44
2023-01-04T17:34:23.221Z,98392.79
2023-01-04T17:36:51.336Z,98389.56
2023-01-04T17:39:20.460Z,98380.77
2023-01-04T17:41:48.358Z,98384.73
2023-01-04T17:44:16.323Z,98382.34
2023-01-04T17:46:47.934Z,98380.72
2023-01-04T17:49:27.543Z,98381.26
2023-01-04T17:51:45.577Z,98380.46
2023-01-04T17:54:13.999Z,98377.25
2023-01-04T17:56:41.944Z,98375.09
2023-01-04T17:59:12.508Z,98365.23
2023-01-04T18:01:44.074Z,98373.20
2023-01-04T18:04:12.158Z,98374.24
2023-01-04T18:06:40.092Z,98376.41
2023-01-04T18:09:08.679Z,98372.92
2023-01-04T18:11:39.176Z,98370.23
2023-01-04T18:14:10.251Z,98358.50
2023-01-04T18:16:40.261Z,98357.95
2023-01-04T18:19:08.501Z,98349.70
2023-01-04T18:21:36.404Z,98345.17
2023-01-04T18:27:10.736Z,98339.55
2023-01-04T18:29:08.066Z,98344.33
2023-01-04T18:31:35.789Z,98332.59
2023-01-04T18:34:05.609Z,98339.23
2023-01-04T18:36:42.468Z,98340.84
2023-01-04T18:39:06.605Z,98333.63
2023-01-04T18:41:35.623Z,98333.36
2023-01-04T18:44:31.341Z,98334.40
2023-01-04T18:46:32.981Z,98327.75
2023-01-04T18:49:02.697Z,98331.21
2023-01-04T18:51:30.277Z,98330.14
2023-01-04T18:53:58.071Z,98322.44
2023-01-04T18:56:28.757Z,98326.72
2023-01-04T18:58:57.552Z,98330.22
2023-01-04T19:01:27.893Z,98327.83
2023-01-04T19:03:56.698Z,98319.33
2023-01-04T19:06:24.753Z,98320.14
2023-01-04T19:09:01.462Z,98325.75
2023-01-04T19:11:26.352Z,98318.30
2023-01-04T19:13:54.724Z,98319.64
2023-01-04T19:16:23.443Z,98320.45
2023-01-04T19:18:51.110Z,98315.13
2023-01-04T19:21:19.146Z,98320.46
2023-01-04T19:23:47.471Z,98322.33
2023-01-04T19:26:15.128Z,98321.56
2023-01-04T19:28:43.017Z,98322.64
2023-01-04T19:31:12.462Z,98318.90
2023-01-04T19:33:41.041Z,98314.12
2023-01-04T19:36:11.265Z,98314.91
2023-01-04T19:38:41.374Z,98311.19
2023-01-04T19:41:14.553Z,98306.66
2023-01-04T19:43:42.598Z,98311.19
2023-01-04T19:46:14.121Z,98311.71
2023-01-04T19:48:44.884Z,98304.27
2023-01-04T19:51:18.480Z,98299.19
2023-01-04T19:53:46.453Z,98294.40
2023-01-04T19:56:16.313Z,98295.22
2023-01-04T19:58:44.452Z,98289.34
2023-01-04T20:01:16.756Z,98287.45
2023-01-04T20:03:44.931Z,98290.13
2023-01-04T20:06:14.707Z,98283.98
2023-01-04T20:08:45.197Z,98276.79
2023-01-04T20:11:13.424Z,98268.52
2023-01-04T20:13:41.191Z,98269.05
2023-01-04T20:16:10.977Z,98267.73
2023-01-04T20:18:39.073Z,98269.56
2023-01-04T20:21:12.548Z,98264.52
2023-01-04T20:23:43.204Z,98267.97
2023-01-04T20:26:15.415Z,98256.00
2023-01-04T20:28:45.368Z,98248.02
2023-01-04T20:31:16.800Z,98248.81
2023-01-04T20:33:46.537Z,98250.14
2023-01-04T20:36:19.060Z,98252.79
2023-01-04T20:38:48.035Z,98253.59
2023-01-04T20:41:19.974Z,98256.27
2023-01-04T20:43:48.590Z,98255.48
2023-01-04T20:46:30.613Z,98253.33
2023-01-04T20:49:00.713Z,98252.55
2023-01-04T20:51:30.467Z,98245.64
2023-01-04T20:53:59.407Z,98233.63
2023-01-04T20:56:30.915Z,98229.91
2023-01-04T20:58:58.850Z,98238.42
2023-01-04T21:01:27.014Z,98227.23
2023-01-04T21:03:54.961Z,98225.11
2023-01-04T21:06:23.386Z,98221.92
2023-01-04T21:08:54.235Z,98217.90
2023-01-04T21:11:22.247Z,98215.52
2023-01-04T21:13:51.491Z,98220.03
2023-01-04T21:16:19.200Z,98215.24
2023-01-04T21:18:47.447Z,98217.13
2023-01-04T21:21:17.593Z,98220.05
2023-01-04T21:23:49.502Z,98229.92
2023-01-04T21:26:20.511Z,98227.77
2023-01-04T21:28:48.167Z,98223.52
2023-01-04T21:31:19.692Z,98223.52
2023-01-04T21:33:48.093Z,98213.38
2023-01-04T21:36:27.618Z,98208.84
2023-01-04T21:38:58.303Z,98203.50
2023-01-04T21:41:26.664Z,98200.30
2023-01-04T21:43:57.288Z,98192.30
2023-01-04T21:46:26.573Z,98199.52
2023-01-04T21:48:57.707Z,98218.69
2023-01-04T21:51:29.471Z,98224.31
2023-01-04T21:53:58.251Z,98215.23
2023-01-04T21:56:26.206Z,98197.11
2023-01-04T21:58:53.979Z,98184.57
2023-01-04T22:01:31.002Z,98186.19
2023-01-04T22:03:56.388Z,98187.77
2023-01-04T22:06:25.448Z,98193.64
2023-01-04T22:08:55.090Z,98191.52
2023-01-04T22:11:22.928Z,98186.98
2023-01-04T22:13:51.061Z,98187.78
2023-01-04T22:16:18.813Z,98187.52
2023-01-04T22:18:50.883Z,98176.31
2023-01-04T22:21:22.854Z,98178.45
2023-01-04T22:23:51.839Z,98170.98
2023-01-04T22:26:19.598Z,98169.91
2023-01-04T22:28:47.377Z,98166.96
2023-01-04T22:31:15.616Z,98162.45
2023-01-04T22:33:43.480Z,98152.83
2023-01-04T22:36:21.729Z,98155.78
2023-01-04T22:38:45.896Z,98148.58
2023-01-04T22:41:16.404Z,98141.63
2023-01-04T22:43:44.910Z,98134.20
2023-01-04T22:46:17.157Z,98125.66
2023-01-04T22:48:45.865Z,98123.01
2023-01-04T22:51:16.842Z,98120.63
2023-01-04T22:53:45.300Z,98119.28
2023-01-04T22:56:19.493Z,98119.03
2023-01-04T22:58:52.094Z,98106.20
2023-01-04T23:01:15.710Z,98102.75
2023-01-04T23:03:43.634Z,98103.03
2023-01-04T23:06:13.026Z,98084.91
2023-01-04T23:08:41.261Z,98079.83
2023-01-04T23:11:16.505Z,98066.53
2023-01-04T23:13:44.037Z,98065.45
2023-01-04T23:16:15.657Z,98060.14
2023-01-04T23:18:43.634Z,98051.07
2023-01-04T23:21:12.624Z,98051.36
2023-01-04T23:23:40.469Z,98051.09
2023-01-04T23:26:21.193Z,98046.03
2023-01-04T23:28:49.870Z,98042.28
2023-01-04T23:31:22.042Z,98036.70
2023-01-04T23:33:55.555Z,98037.23
2023-01-04T23:36:28.053Z,98042.30
2023-01-04T23:38:58.831Z,98039.09
2023-01-04T23:41:45.857Z,98042.05
2023-01-04T23:47:01.237Z,98030.86
2023-01-04T23:49:31.693Z,98034.88
2023-01-04T23:52:00.145Z,98041.00
2023-01-04T23:54:29.064Z,98033.30
2023-01-04T23:56:57.376Z,98029.55
2023-01-04T23:59:25.422Z,98022.63
